sensor_id;sensor_type;location;lat;lon;timestamp;pressure;altitude;pressure_sealevel;temperature;humidity
49216;BME280;45943;53.148;8.204;2024-01-15T00:02:23;99704.19;;;5.28;100.00
49216;BME280;45943;53.148;8.204;2024-01-15T00:04:49;99689.91;;;5.29;100.00
49216;BME280;45943;53.148;8.204;2024-01-15T00:07:15;99686.66;;;5.25;100.00
49216;BME280;45943;53.148;8.204;2024-01-15T00:09:40;99684.00;;;5.25;100.00
49216;BME280;45943;53.148;8.204;2024-01-15T00:12:06;99681.34;;;5.25;100.00
49216;BME280;45943;53.148;8.204;2024-01-15T00:14:32;99700.66;;;5.27;100.00
49216;BME280;45943;53.148;8.204;2024-01-15T00:16:58;99698.13;;;5.26;100.00
49216;BME280;45943;53.148;8.204;2024-01-15T00:19:24;99677.25;;;5.32;100.00
49216;BME280;45943;53.148;8.204;2024-01-15T00:21:50;99692.34;;;5.32;100.00
49216;BME280;45943;53.148;8.204;2024-01-15T00:24:16;99686.78;;;5.35;100.00
49216;BME280;45943;53.148;8.204;2024-01-15T00:26:42;99684.25;;;5.22;100.00
49216;BME280;45943;53.148;8.204;2024-01-15T00:29:09;99677.31;;;5.19;100.00
49216;BME280;45943;53.148;8.204;2024-01-15T00:31:35;99679.75;;;5.11;100.00
49216;BME280;45943;53.148;8.204;2024-01-15T00:34:01;99675.75;;;5.17;100.00
49216;BME280;45943;53.148;8.204;2024-01-15T00:36:27;99671.00;;;4.98;100.00
49216;BME280;45943;53.148;8.204;2024-01-15T00:38:54;99664.13;;;5.07;100.00
49216;BME280;45943;53.148;8.204;2024-01-15T00:41:20;99668.59;;;5.06;100.00
49216;BME280;45943;53.148;8.204;2024-01-15T00:43:46;99667.06;;;5.15;100.00
49216;BME280;45943;53.148;8.204;2024-01-15T00:46:15;99677.09;;;5.11;100.00
49216;BME280;45943;53.148;8.204;2024-01-15T00:48:41;99667.78;;;5.17;100.00
49216;BME280;45943;53.148;8.204;2024-01-15T00:51:07;99667.75;;;4.95;100.00
49216;BME280;45943;53.148;8.204;2024-01-15T00:53:33;99657.47;;;5.01;100.00
49216;BME280;45943;53.148;8.204;2024-01-15T00:55:59;99658.91;;;4.94;100.00
49216;BME280;45943;53.148;8.204;2024-01-15T00:58:25;99643.09;;;4.93;100.00
49216;BME280;45943;53.148;8.204;2024-01-15T01:00:52;99644.44;;;4.98;100.00
49216;BME280;45943;53.148;8.204;2024-01-15T01:03:18;99639.25;;;5.08;100.00
49216;BME280;45943;53.148;8.204;2024-01-15T01:05:44;99645.78;;;5.04;100.00
49216;BME280;45943;53.148;8.204;2024-01-15T01:08:10;99651.69;;;5.07;100.00
49216;BME280;45943;53.148;8.204;2024-01-15T01:10:37;99656.03;;;5.08;100.00
49216;BME280;45943;53.148;8.204;2024-01-15T01:13:04;99638.25;;;4.98;100.00
49216;BME280;45943;53.148;8.204;2024-01-15T01:15:30;99641.44;;;5.03;100.00
49216;BME280;45943;53.148;8.204;2024-01-15T01:17:56;99624.53;;;5.04;100.00
49216;BME280;45943;53.148;8.204;2024-01-15T01:20:22;99632.13;;;5.08;100.00
49216;BME280;45943;53.148;8.204;2024-01-15T01:22:48;99636.97;;;5.03;100.00
49216;BME280;45943;53.148;8.204;2024-01-15T01:25:14;99626.69;;;5.10;100.00
49216;BME280;45943;53.148;8.204;2024-01-15T01:27:40;99616.81;;;5.12;100.00
49216;BME280;45943;53.148;8.204;2024-01-15T01:30:06;99621.75;;;5.16;100.00
49216;BME280;45943;53.148;8.204;2024-01-15T01:32:32;99617.41;;;5.15;100.00
49216;BME280;45943;53.148;8.204;2024-01-15T01:34:58;99614.25;;;5.10;100.00
49216;BME280;45943;53.148;8.204;2024-01-15T01:37:24;99610.78;;;5.21;100.00
49216;BME280;45943;53.148;8.204;2024-01-15T01:39:50;99609.69;;;5.12;100.00
49216;BME280;45943;53.148;8.204;2024-01-15T01:42:16;99612.66;;;5.08;100.00
49216;BME280;45943;53.148;8.204;2024-01-15T01:44:42;99618.50;;;5.13;100.00
49216;BME280;45943;53.148;8.204;2024-01-15T01:47:08;99616.06;;;5.10;100.00
49216;BME280;45943;53.148;8.204;2024-01-15T01:49:35;99621.63;;;5.07;100.00
49216;BME280;45943;53.148;8.204;2024-01-15T01:52:05;99627.03;;;4.94;100.00
49216;BME280;45943;53.148;8.204;2024-01-15T01:54:32;99605.91;;;5.04;100.00
49216;BME280;45943;53.148;8.204;2024-01-15T01:56:58;99614.72;;;5.04;100.00
49216;BME280;45943;53.148;8.204;2024-01-15T01:59:26;99610.78;;;5.21;100.00
49216;BME280;45943;53.148;8.204;2024-01-15T02:01:53;99600.00;;;5.23;100.00
49216;BME280;45943;53.148;8.204;2024-01-15T02:04:22;99605.81;;;5.28;100.00
49216;BME280;45943;53.148;8.204;2024-01-15T02:06:49;99595.16;;;5.28;100.00
49216;BME280;45943;53.148;8.204;2024-01-15T02:09:16;99590.34;;;5.33;100.00
49216;BME280;45943;53.148;8.204;2024-01-15T02:11:43;99599.63;;;5.27;100.00
49216;BME280;45943;53.148;8.204;2024-01-15T02:14:12;99589.13;;;5.26;100.00
49216;BME280;45943;53.148;8.204;2024-01-15T02:16:38;99601.00;;;5.22;100.00
49216;BME280;45943;53.148;8.204;2024-01-15T02:19:04;99619.09;;;5.16;100.00
49216;BME280;45943;53.148;8.204;2024-01-15T02:21:31;99599.50;;;5.06;100.00
49216;BME280;45943;53.148;8.204;2024-01-15T02:23:57;99603.38;;;5.13;100.00
49216;BME280;45943;53.148;8.204;2024-01-15T02:26:24;99607.63;;;5.16;100.00
49216;BME280;45943;53.148;8.204;2024-01-15T02:28:50;99601.91;;;4.98;100.00
49216;BME280;45943;53.148;8.204;2024-01-15T02:31:17;99608.31;;;5.07;100.00
49216;BME280;45943;53.148;8.204;2024-01-15T02:33:43;99625.25;;;5.17;100.00
49216;BME280;45943;53.148;8.204;2024-01-15T02:36:11;99629.25;;;5.11;100.00
49216;BME280;45943;53.148;8.204;2024-01-15T02:38:37;99620.66;;;5.08;100.00
49216;BME280;45943;53.148;8.204;2024-01-15T02:41:04;99633.94;;;5.08;100.00
49216;BME280;45943;53.148;8.204;2024-01-15T02:43:30;99632.63;;;5.13;100.00
49216;BME280;45943;53.148;8.204;2024-01-15T02:45:56;99623.16;;;4.98;100.00
49216;BME280;45943;53.148;8.204;2024-01-15T02:48:22;99623.28;;;4.97;100.00
49216;BME280;45943;53.148;8.204;2024-01-15T02:50:48;99632.13;;;5.19;100.00
49216;BME280;45943;53.148;8.204;2024-01-15T02:53:14;99613.06;;;5.14;100.00
49216;BME280;45943;53.148;8.204;2024-01-15T02:55:40;99609.41;;;5.04;100.00
49216;BME280;45943;53.148;8.204;2024-01-15T02:58:07;99609.69;;;5.12;100.00
49216;BME280;45943;53.148;8.204;2024-01-15T03:00:33;99621.28;;;5.11;100.00
49216;BME280;45943;53.148;8.204;2024-01-15T03:02:59;99630.44;;;5.18;100.00
49216;BME280;45943;53.148;8.204;2024-01-15T03:05:25;99627.44;;;5.23;100.00
49216;BME280;45943;53.148;8.204;2024-01-15T03:07:51;99624.53;;;5.15;100.00
49216;BME280;45943;53.148;8.204;2024-01-15T03:10:17;99625.00;;;5.09;100.00
49216;BME280;45943;53.148;8.204;2024-01-15T03:12:43;99621.50;;;5.19;100.00
49216;BME280;45943;53.148;8.204;2024-01-15T03:15:09;99619.34;;;5.13;100.00
49216;BME280;45943;53.148;8.204;2024-01-15T03:17:35;99608.72;;;5.25;100.00
49216;BME280;45943;53.148;8.204;2024-01-15T03:20:01;99610.28;;;5.27;100.00
49216;BME280;45943;53.148;8.204;2024-01-15T03:22:28;99610.66;;;5.23;100.00
49216;BME280;45943;53.148;8.204;2024-01-15T03:24:54;99606.44;;;5.31;100.00
49216;BME280;45943;53.148;8.204;2024-01-15T03:27:20;99611.75;;;5.31;100.00
49216;BME280;45943;53.148;8.204;2024-01-15T03:29:46;99616.19;;;5.31;100.00
49216;BME280;45943;53.148;8.204;2024-01-15T03:32:12;99613.31;;;5.23;100.00
49216;BME280;45943;53.148;8.204;2024-01-15T03:34:38;99615.00;;;5.12;100.00
49216;BME280;45943;53.148;8.204;2024-01-15T03:37:04;99617.75;;;5.11;100.00
49216;BME280;45943;53.148;8.204;2024-01-15T03:39:30;99617.16;;;5.18;100.00
49216;BME280;45943;53.148;8.204;2024-01-15T03:41:56;99615.84;;;5.24;100.00
49216;BME280;45943;53.148;8.204;2024-01-15T03:44:23;99610.03;;;5.30;100.00
49216;BME280;45943;53.148;8.204;2024-01-15T03:46:49;99602.91;;;5.31;100.00
49216;BME280;45943;53.148;8.204;2024-01-15T03:49:15;99600.13;;;5.32;100.00
49216;BME280;45943;53.148;8.204;2024-01-15T03:51:41;99603.25;;;5.15;100.00
49216;BME280;45943;53.148;8.204;2024-01-15T03:54:07;99609.69;;;5.24;100.00
49216;BME280;45943;53.148;8.204;2024-01-15T03:56:33;99616.94;;;5.22;100.00
49216;BME280;45943;53.148;8.204;2024-01-15T03:58:59;99620.44;;;5.22;100.00
49216;BME280;45943;53.148;8.204;2024-01-15T04:01:25;99617.16;;;5.30;100.00
49216;BME280;45943;53.148;8.204;2024-01-15T04:03:51;99629.13;;;5.35;100.00
49216;BME280;45943;53.148;8.204;2024-01-15T04:06:17;99639.19;;;5.43;100.00
49216;BME280;45943;53.148;8.204;2024-01-15T04:08:43;99648.97;;;5.42;100.00
49216;BME280;45943;53.148;8.204;2024-01-15T04:11:09;99646.53;;;5.39;100.00
49216;BME280;45943;53.148;8.204;2024-01-15T04:13:35;99653.91;;;5.36;100.00
49216;BME280;45943;53.148;8.204;2024-01-15T04:16:01;99652.47;;;5.32;100.00
49216;BME280;45943;53.148;8.204;2024-01-15T04:18:27;99628.28;;;5.35;100.00
49216;BME280;45943;53.148;8.204;2024-01-15T04:20:53;99657.03;;;5.30;100.00
49216;BME280;45943;53.148;8.204;2024-01-15T04:23:19;99631.66;;;5.26;100.00
49216;BME280;45943;53.148;8.204;2024-01-15T04:25:46;99616.09;;;5.32;100.00
49216;BME280;45943;53.148;8.204;2024-01-15T04:28:12;99617.06;;;5.31;100.00
49216;BME280;45943;53.148;8.204;2024-01-15T04:30:38;99622.59;;;5.28;100.00
49216;BME280;45943;53.148;8.204;2024-01-15T04:33:04;99624.53;;;5.26;100.00
49216;BME280;45943;53.148;8.204;2024-01-15T04:35:30;99614.16;;;5.34;100.00
49216;BME280;45943;53.148;8.204;2024-01-15T04:37:56;99618.50;;;5.35;100.00
49216;BME280;45943;53.148;8.204;2024-01-15T04:40:22;99613.56;;;5.42;100.00
49216;BME280;45943;53.148;8.204;2024-01-15T04:42:48;99605.56;;;5.31;100.00
49216;BME280;45943;53.148;8.204;2024-01-15T04:45:14;99603.16;;;5.28;100.00
49216;BME280;45943;53.148;8.204;2024-01-15T04:47:40;99610.88;;;5.31;100.00
49216;BME280;45943;53.148;8.204;2024-01-15T04:50:08;99623.31;;;5.19;100.00
49216;BME280;45943;53.148;8.204;2024-01-15T04:52:34;99628.41;;;5.22;100.00
49216;BME280;45943;53.148;8.204;2024-01-15T04:54:59;99620.91;;;5.27;100.00
49216;BME280;45943;53.148;8.204;2024-01-15T04:57:25;99630.94;;;5.24;100.00
49216;BME280;45943;53.148;8.204;2024-01-15T04:59:51;99615.22;;;5.21;100.00
49216;BME280;45943;53.148;8.204;2024-01-15T05:02:17;99601.84;;;5.22;100.00
49216;BME280;45943;53.148;8.204;2024-01-15T05:04:43;99608.59;;;5.15;100.00
49216;BME280;45943;53.148;8.204;2024-01-15T05:07:09;99597.81;;;5.16;100.00
49216;BME280;45943;53.148;8.204;2024-01-15T05:09:35;99604.84;;;5.29;100.00
49216;BME280;45943;53.148;8.204;2024-01-15T05:12:01;99602.16;;;5.29;100.00
49216;BME280;45943;53.148;8.204;2024-01-15T05:14:27;99608.47;;;5.28;100.00
49216;BME280;45943;53.148;8.204;2024-01-15T05:16:53;99611.25;;;5.26;100.00
49216;BME280;45943;53.148;8.204;2024-01-15T05:19:19;99620.66;;;5.08;100.00
49216;BME280;45943;53.148;8.204;2024-01-15T05:21:45;99600.34;;;5.29;100.00
49216;BME280;45943;53.148;8.204;2024-01-15T05:24:11;99597.56;;;5.31;100.00
49216;BME280;45943;53.148;8.204;2024-01-15T05:26:37;99605.69;;;5.29;100.00
49216;BME280;45943;53.148;8.204;2024-01-15T05:29:03;99603.75;;;5.20;100.00
49216;BME280;45943;53.148;8.204;2024-01-15T05:31:29;99600.22;;;5.19;100.00
49216;BME280;45943;53.148;8.204;2024-01-15T05:33:55;99600.59;;;5.26;100.00
49216;BME280;45943;53.148;8.204;2024-01-15T05:36:21;99598.66;;;5.28;100.00
49216;BME280;45943;53.148;8.204;2024-01-15T05:38:47;99594.44;;;5.26;100.00
49216;BME280;45943;53.148;8.204;2024-01-15T05:41:14;99594.44;;;5.26;100.00
49216;BME280;45943;53.148;8.204;2024-01-15T05:43:40;99603.78;;;5.31;100.00
49216;BME280;45943;53.148;8.204;2024-01-15T05:46:06;99598.44;;;5.31;100.00
49216;BME280;45943;53.148;8.204;2024-01-15T05:48:32;99611.72;;;5.20;100.00
49216;BME280;45943;53.148;8.204;2024-01-15T05:50:58;99604.59;;;5.21;100.00
49216;BME280;45943;53.148;8.204;2024-01-15T05:53:24;99611.38;;;5.25;100.00
49216;BME280;45943;53.148;8.204;2024-01-15T05:55:50;99605.19;;;5.13;100.00
49216;BME280;45943;53.148;8.204;2024-01-15T05:58:16;99611.00;;;5.18;100.00
49216;BME280;45943;53.148;8.204;2024-01-15T06:00:42;99597.81;;;5.16;100.00
49216;BME280;45943;53.148;8.204;2024-01-15T06:03:08;99603.66;;;5.22;100.00
49216;BME280;45943;53.148;8.204;2024-01-15T06:05:34;99613.53;;;5.08;100.00
49216;BME280;45943;53.148;8.204;2024-01-15T06:08:00;99611.38;;;5.13;100.00
49216;BME280;45943;53.148;8.204;2024-01-15T06:10:26;99609.03;;;5.09;100.00
49216;BME280;45943;53.148;8.204;2024-01-15T06:12:52;99601.19;;;5.07;100.00
49216;BME280;45943;53.148;8.204;2024-01-15T06:15:18;99594.91;;;5.08;100.00
49216;BME280;45943;53.148;8.204;2024-01-15T06:17:44;99585.38;;;5.17;100.00
49216;BME280;45943;53.148;8.204;2024-01-15T06:20:10;99588.03;;;5.17;100.00
49216;BME280;45943;53.148;8.204;2024-01-15T06:22:37;99588.03;;;5.17;100.00
49216;BME280;45943;53.148;8.204;2024-01-15T06:25:06;99587.06;;;5.18;100.00
49216;BME280;45943;53.148;8.204;2024-01-15T06:27:34;99586.47;;;5.14;100.00
49216;BME280;45943;53.148;8.204;2024-01-15T06:30:00;99586.81;;;5.10;100.00
49216;BME280;45943;53.148;8.204;2024-01-15T06:32:26;99588.75;;;5.19;100.00
49216;BME280;45943;53.148;8.204;2024-01-15T06:34:52;99585.63;;;5.14;100.00
49216;BME280;45943;53.148;8.204;2024-01-15T06:37:18;99587.66;;;5.10;100.00
49216;BME280;45943;53.148;8.204;2024-01-15T06:39:45;99589.84;;;5.16;100.00
49216;BME280;45943;53.148;8.204;2024-01-15T06:42:11;99597.47;;;5.21;100.00
49216;BME280;45943;53.148;8.204;2024-01-15T06:44:37;99607.75;;;5.14;100.00
49216;BME280;45943;53.148;8.204;2024-01-15T06:47:03;99608.22;;;5.19;100.00
49216;BME280;45943;53.148;8.204;2024-01-15T06:49:30;99617.66;;;5.24;100.00
49216;BME280;45943;53.148;8.204;2024-01-15T06:51:56;99603.78;;;5.31;100.00
49216;BME280;45943;53.148;8.204;2024-01-15T06:54:22;99614.75;;;5.38;100.00
49216;BME280;45943;53.148;8.204;2024-01-15T06:56:49;99618.38;;;5.37;100.00
49216;BME280;45943;53.148;8.204;2024-01-15T06:59:16;99621.88;;;5.15;100.00
49216;BME280;45943;53.148;8.204;2024-01-15T07:01:42;99607.09;;;5.11;100.00
49216;BME280;45943;53.148;8.204;2024-01-15T07:04:08;99613.06;;;5.14;100.00
49216;BME280;45943;53.148;8.204;2024-01-15T07:06:33;99618.00;;;5.08;100.00
49216;BME280;45943;53.148;8.204;2024-01-15T07:08:59;99615.00;;;5.12;100.00
49216;BME280;45943;53.148;8.204;2024-01-15T07:11:25;99605.81;;;5.16;100.00
49216;BME280;45943;53.148;8.204;2024-01-15T07:13:51;99608.00;;;5.23;100.00
49216;BME280;45943;53.148;8.204;2024-01-15T07:16:17;99607.38;;;5.19;100.00
49216;BME280;45943;53.148;8.204;2024-01-15T07:18:43;99608.72;;;5.25;100.00
49216;BME280;45943;53.148;8.204;2024-01-15T07:21:10;99620.66;;;5.30;100.00
49216;BME280;45943;53.148;8.204;2024-01-15T07:23:35;99619.59;;;5.33;100.00
49216;BME280;45943;53.148;8.204;2024-01-15T07:26:02;99621.03;;;5.37;100.00
49216;BME280;45943;53.148;8.204;2024-01-15T07:28:31;99633.22;;;5.28;100.00
49216;BME280;45943;53.148;8.204;2024-01-15T07:30:57;99636.28;;;5.35;100.00
49216;BME280;45943;53.148;8.204;2024-01-15T07:33:23;99624.06;;;5.32;100.00
49216;BME280;45943;53.148;8.204;2024-01-15T07:35:49;99632.03;;;5.21;100.00
49216;BME280;45943;53.148;8.204;2024-01-15T07:38:15;99638.94;;;5.24;100.00
49216;BME280;45943;53.148;8.204;2024-01-15T07:40:41;99636.84;;;5.16;100.00
49216;BME280;45943;53.148;8.204;2024-01-15T07:43:07;99644.72;;;5.29;100.00
49216;BME280;45943;53.148;8.204;2024-01-15T07:45:33;99647.38;;;5.29;100.00
49216;BME280;45943;53.148;8.204;2024-01-15T07:47:59;99650.16;;;5.27;100.00
49216;BME280;45943;53.148;8.204;2024-01-15T07:50:25;99650.28;;;5.26;100.00
49216;BME280;45943;53.148;8.204;2024-01-15T07:52:51;99652.06;;;5.14;100.00
49216;BME280;45943;53.148;8.204;2024-01-15T07:55:18;99656.03;;;5.08;100.00
49216;BME280;45943;53.148;8.204;2024-01-15T07:57:44;99641.53;;;5.01;100.00
49216;BME280;45943;53.148;8.204;2024-01-15T08:00:10;99644.19;;;5.01;100.00
49216;BME280;45943;53.148;8.204;2024-01-15T08:02:36;99644.09;;;5.14;100.00
49216;BME280;45943;53.148;8.204;2024-01-15T08:05:02;99642.41;;;5.02;100.00
49216;BME280;45943;53.148;8.204;2024-01-15T08:07:28;99642.41;;;5.02;100.00
49216;BME280;45943;53.148;8.204;2024-01-15T08:09:54;99640.69;;;5.01;100.00
49216;BME280;45943;53.148;8.204;2024-01-15T08:12:20;99637.81;;;5.04;100.00
49216;BME280;45943;53.148;8.204;2024-01-15T08:14:47;99642.84;;;4.96;100.00
49216;BME280;45943;53.148;8.204;2024-01-15T08:17:13;99647.94;;;5.10;100.00
49216;BME280;45943;53.148;8.204;2024-01-15T08:19:39;99645.66;;;5.05;100.00
49216;BME280;45943;53.148;8.204;2024-01-15T08:22:06;99655.06;;;5.09;100.00
49216;BME280;45943;53.148;8.204;2024-01-15T08:24:32;99650.00;;;5.06;100.00
49216;BME280;45943;53.148;8.204;2024-01-15T08:26:59;99652.19;;;5.12;100.00
49216;BME280;45943;53.148;8.204;2024-01-15T08:29:24;99642.53;;;5.11;100.00
49216;BME280;45943;53.148;8.204;2024-01-15T08:31:50;99644.56;;;5.08;100.00
49216;BME280;45943;53.148;8.204;2024-01-15T08:34:16;99646.03;;;5.12;100.00
49216;BME280;45943;53.148;8.204;2024-01-15T08:36:42;99654.09;;;5.10;100.00
49216;BME280;45943;53.148;8.204;2024-01-15T08:39:08;99645.44;;;5.19;100.00
49216;BME280;45943;53.148;8.204;2024-01-15T08:41:34;99651.81;;;5.06;100.00
49216;BME280;45943;53.148;8.204;2024-01-15T08:44:01;99645.66;;;5.16;100.00
49216;BME280;45943;53.148;8.204;2024-01-15T08:46:28;99647.75;;;5.24;100.00
49216;BME280;45943;53.148;8.204;2024-01-15T08:48:54;99649.78;;;5.21;100.00
49216;BME280;45943;53.148;8.204;2024-01-15T08:51:20;99648.91;;;5.09;100.00
49216;BME280;45943;53.148;8.204;2024-01-15T08:53:46;99640.72;;;5.12;100.00
49216;BME280;45943;53.148;8.204;2024-01-15T08:56:12;99645.53;;;5.07;100.00
49216;BME280;45943;53.148;8.204;2024-01-15T08:58:38;99639.75;;;5.13;100.00
49216;BME280;45943;53.148;8.204;2024-01-15T09:01:04;99638.38;;;4.96;100.00
49216;BME280;45943;53.148;8.204;2024-01-15T09:03:31;99648.91;;;4.98;100.00
49216;BME280;45943;53.148;8.204;2024-01-15T09:05:57;99645.78;;;5.15;100.00
49216;BME280;45943;53.148;8.204;2024-01-15T09:08:23;99659.81;;;5.28;100.00
49216;BME280;45943;53.148;8.204;2024-01-15T09:10:50;99658.00;;;5.17;100.00
49216;BME280;45943;53.148;8.204;2024-01-15T09:13:16;99662.19;;;5.09;100.00
49216;BME280;45943;53.148;8.204;2024-01-15T09:15:42;99651.34;;;5.12;100.00
49216;BME280;45943;53.148;8.204;2024-01-15T09:18:08;99657.59;;;5.11;100.00
49216;BME280;45943;53.148;8.204;2024-01-15T09:20:34;99655.06;;;5.09;100.00
49216;BME280;45943;53.148;8.204;2024-01-15T09:23:01;99656.53;;;5.02;100.00
49216;BME280;45943;53.148;8.204;2024-01-15T09:25:27;99647.31;;;4.95;100.00
49216;BME280;45943;53.148;8.204;2024-01-15T09:27:53;99648.16;;;4.96;100.00
49216;BME280;45943;53.148;8.204;2024-01-15T09:30:19;99649.13;;;4.95;100.00
49216;BME280;45943;53.148;8.204;2024-01-15T09:32:45;99647.91;;;4.87;100.00
49216;BME280;45943;53.148;8.204;2024-01-15T09:35:11;99643.56;;;4.86;100.00
49216;BME280;45943;53.148;8.204;2024-01-15T09:37:38;99663.38;;;4.82;100.00
49216;BME280;45943;53.148;8.204;2024-01-15T09:40:05;99663.38;;;4.82;100.00
49216;BME280;45943;53.148;8.204;2024-01-15T09:42:33;99657.69;;;4.87;100.00
49216;BME280;45943;53.148;8.204;2024-01-15T09:45:01;99662.31;;;4.96;100.00
49216;BME280;45943;53.148;8.204;2024-01-15T09:47:29;99668.50;;;5.08;100.00
49216;BME280;45943;53.148;8.204;2024-01-15T09:49:55;99665.25;;;5.15;100.00
49216;BME280;45943;53.148;8.204;2024-01-15T09:52:24;99675.63;;;5.18;100.00
49216;BME280;45943;53.148;8.204;2024-01-15T09:54:50;99675.50;;;5.09;100.00
49216;BME280;45943;53.148;8.204;2024-01-15T09:57:17;99672.97;;;5.07;100.00
49216;BME280;45943;53.148;8.204;2024-01-15T09:59:43;99669.97;;;5.12;100.00
49216;BME280;45943;53.148;8.204;2024-01-15T10:02:11;99670.25;;;4.85;100.00
49216;BME280;45943;53.148;8.204;2024-01-15T10:04:43;99682.41;;;4.76;100.00
49216;BME280;45943;53.148;8.204;2024-01-15T10:07:09;99682.69;;;4.84;100.00
49216;BME280;45943;53.148;8.204;2024-01-15T10:09:45;99677.97;;;4.88;100.00
49216;BME280;45943;53.148;8.204;2024-01-15T10:12:12;99686.47;;;4.93;100.00
49216;BME280;45943;53.148;8.204;2024-01-15T10:14:38;99687.66;;;5.00;100.00
49216;BME280;45943;53.148;8.204;2024-01-15T10:17:13;99681.53;;;5.11;100.00
49216;BME280;45943;53.148;8.204;2024-01-15T10:19:40;99668.03;;;5.14;100.00
49216;BME280;45943;53.148;8.204;2024-01-15T10:22:08;99664.00;;;5.08;100.00
49216;BME280;45943;53.148;8.204;2024-01-15T10:24:36;99670.06;;;5.10;100.00
49216;BME280;45943;53.148;8.204;2024-01-15T10:27:09;99674.78;;;5.07;100.00
49216;BME280;45943;53.148;8.204;2024-01-15T10:29:36;99677.69;;;5.15;100.00
49216;BME280;45943;53.148;8.204;2024-01-15T10:32:05;99669.84;;;5.13;100.00
49216;BME280;45943;53.148;8.204;2024-01-15T10:34:33;99667.53;;;5.20;100.00
49216;BME280;45943;53.148;8.204;2024-01-15T10:37:04;99668.88;;;5.14;100.00
49216;BME280;45943;53.148;8.204;2024-01-15T10:39:30;99669.13;;;5.11;100.00
49216;BME280;45943;53.148;8.204;2024-01-15T10:41:56;99655.69;;;5.02;100.00
49216;BME280;45943;53.148;8.204;2024-01-15T10:44:22;99664.38;;;5.04;100.00
49216;BME280;45943;53.148;8.204;2024-01-15T10:46:48;99664.50;;;5.02;100.00
49216;BME280;45943;53.148;8.204;2024-01-15T10:49:14;99670.41;;;5.06;100.00
49216;BME280;45943;53.148;8.204;2024-01-15T10:51:41;99656.41;;;5.04;100.00
49216;BME280;45943;53.148;8.204;2024-01-15T10:54:08;99651.66;;;4.96;100.00
49216;BME280;45943;53.148;8.204;2024-01-15T10:56:36;99658.44;;;5.00;100.00
49216;BME280;45943;53.148;8.204;2024-01-15T10:59:03;99654.09;;;4.99;100.00
49216;BME280;45943;53.148;8.204;2024-01-15T11:01:30;99654.09;;;5.10;100.00
49216;BME280;45943;53.148;8.204;2024-01-15T11:03:56;99653.03;;;5.13;100.00
49216;BME280;45943;53.148;8.204;2024-01-15T11:06:23;99658.00;;;5.17;100.00
49216;BME280;45943;53.148;8.204;2024-01-15T11:08:51;99653.41;;;5.19;100.00
49216;BME280;45943;53.148;8.204;2024-01-15T11:11:18;99650.03;;;5.29;100.00
49216;BME280;45943;53.148;8.204;2024-01-15T11:13:47;99660.31;;;5.33;100.00
49216;BME280;45943;53.148;8.204;2024-01-15T11:16:16;99656.81;;;5.33;100.00
49216;BME280;45943;53.148;8.204;2024-01-15T11:18:45;99654.88;;;5.35;100.00
49216;BME280;45943;53.148;8.204;2024-01-15T11:21:28;99652.09;;;5.36;100.00
49216;BME280;45943;53.148;8.204;2024-01-15T11:23:56;99653.06;;;5.35;100.00
49216;BME280;45943;53.148;8.204;2024-01-15T11:26:38;99650.16;;;5.38;100.00
49216;BME280;45943;53.148;8.204;2024-01-15T11:29:28;99643.41;;;5.34;100.00
49216;BME280;45943;53.148;8.204;2024-01-15T11:32:00;99653.19;;;5.23;100.00
49216;BME280;45943;53.148;8.204;2024-01-15T11:34:55;99643.13;;;5.15;100.00
49216;BME280;45943;53.148;8.204;2024-01-15T11:37:24;99646.25;;;5.09;100.00
49216;BME280;45943;53.148;8.204;2024-01-15T11:39:51;99642.03;;;5.06;100.00
49216;BME280;45943;53.148;8.204;2024-01-15T11:42:20;99639.94;;;4.99;100.00
49216;BME280;45943;53.148;8.204;2024-01-15T11:44:47;99649.97;;;4.95;100.00
49216;BME280;45943;53.148;8.204;2024-01-15T11:47:14;99653.38;;;4.97;100.00
49216;BME280;45943;53.148;8.204;2024-01-15T11:49:47;99644.69;;;5.06;100.00
49216;BME280;45943;53.148;8.204;2024-01-15T11:52:34;99655.91;;;5.10;100.00
49216;BME280;45943;53.148;8.204;2024-01-15T11:58:02;99643.84;;;5.17;100.00
49216;BME280;45943;53.148;8.204;2024-01-15T12:00:34;99646.41;;;5.18;100.00
49216;BME280;45943;53.148;8.204;2024-01-15T12:03:00;99640.63;;;5.25;100.00
49216;BME280;45943;53.148;8.204;2024-01-15T12:05:27;99641.84;;;5.32;100.00
49216;BME280;45943;53.148;8.204;2024-01-15T12:07:54;99643.66;;;5.31;100.00
49216;BME280;45943;53.148;8.204;2024-01-15T12:10:20;99641.59;;;5.35;100.00
49216;BME280;45943;53.148;8.204;2024-01-15T12:15:18;99639.78;;;5.46;100.00
49216;BME280;45943;53.148;8.204;2024-01-15T12:17:45;99630.81;;;5.47;100.00
49216;BME280;45943;53.148;8.204;2024-01-15T12:20:13;99638.59;;;5.51;100.00
49216;BME280;45943;53.148;8.204;2024-01-15T12:22:41;99638.59;;;5.51;100.00
49216;BME280;45943;53.148;8.204;2024-01-15T12:25:07;99635.16;;;5.60;100.00
49216;BME280;45943;53.148;8.204;2024-01-15T12:27:33;99643.03;;;5.50;100.00
49216;BME280;45943;53.148;8.204;2024-01-15T12:29:59;99643.78;;;5.52;100.00
49216;BME280;45943;53.148;8.204;2024-01-15T12:32:25;99635.44;;;5.57;100.00
49216;BME280;45943;53.148;8.204;2024-01-15T12:34:51;99647.41;;;5.62;100.00
49216;BME280;45943;53.148;8.204;2024-01-15T12:37:18;99651.03;;;5.61;100.00
49216;BME280;45943;53.148;8.204;2024-01-15T12:39:45;99653.56;;;5.63;100.00
49216;BME280;45943;53.148;8.204;2024-01-15T12:42:11;99646.31;;;5.54;100.00
49216;BME280;45943;53.148;8.204;2024-01-15T12:44:37;99649.69;;;5.56;100.00
49216;BME280;45943;53.148;8.204;2024-01-15T12:47:05;99649.56;;;5.57;100.00
49216;BME280;45943;53.148;8.204;2024-01-15T12:49:31;99651.03;;;5.61;100.00
49216;BME280;45943;53.148;8.204;2024-01-15T12:51:57;99656.81;;;5.66;100.00
49216;BME280;45943;53.148;8.204;2024-01-15T12:54:24;99663.00;;;5.56;100.00
49216;BME280;45943;53.148;8.204;2024-01-15T12:56:51;99663.00;;;5.44;100.00
49216;BME280;45943;53.148;8.204;2024-01-15T12:59:17;99655.59;;;5.48;100.00
49216;BME280;45943;53.148;8.204;2024-01-15T13:01:44;99659.97;;;5.49;100.00
49216;BME280;45943;53.148;8.204;2024-01-15T13:04:20;99654.28;;;5.54;100.00